Terminal Aerodrome Forecast
Issued by NWS

Home | Current Version | Previous Version | Text Only | Print | Product List | Glossary On
Versions: 1 2 3 4 5 6 7 8 9 10 11 12 13
000
FTUS43 KDLH 281800 AAA
TAFBRD
TAF AMD
KBRD 281847Z 2819/0118 18012G20KT P6SM SCT100
     FM010000 19012KT P6SM SCT035 BKN070
     FM010300 21008KT P6SM -SN SCT020 BKN035
     FM010900 25006KT P6SM SCT030
     FM011600 27010KT P6SM SCT040=

USA.gov is the U.S. government's official web portal to all federal, state and local government web resources and services.